createdAt,value
2022-08-27T00:00:47.183Z,17.41
2022-08-27T00:01:47.304Z,17.42
2022-08-27T00:02:47.174Z,17.38
2022-08-27T00:03:47.282Z,17.39
2022-08-27T00:04:47.149Z,17.41
2022-08-27T00:05:47.133Z,17.41
2022-08-27T00:06:47.092Z,17.41
2022-08-27T00:07:47.169Z,17.39
2022-08-27T00:08:47.030Z,17.41
2022-08-27T00:09:47.083Z,17.44
2022-08-27T00:10:47.129Z,17.45
2022-08-27T00:11:47.243Z,17.44
2022-08-27T00:12:46.979Z,17.41
2022-08-27T00:13:46.986Z,17.41
2022-08-27T00:14:47.071Z,17.41
2022-08-27T00:15:47.124Z,17.41
2022-08-27T00:16:47.006Z,17.41
2022-08-27T00:17:47.005Z,17.41
2022-08-27T00:18:48.107Z,17.42
2022-08-27T00:19:46.913Z,17.42
2022-08-27T00:20:47.003Z,17.42
2022-08-27T00:21:46.979Z,17.45
2022-08-27T00:22:47.068Z,17.42
2022-08-27T00:23:46.903Z,17.41
2022-08-27T00:24:49.010Z,17.41
2022-08-27T00:25:46.942Z,17.41
2022-08-27T00:26:46.884Z,17.39
2022-08-27T00:27:46.995Z,17.39
2022-08-27T00:28:46.998Z,17.38
2022-08-27T00:29:46.892Z,17.38
2022-08-27T00:30:46.813Z,17.36
2022-08-27T00:31:46.918Z,17.36
2022-08-27T00:32:46.842Z,17.34
2022-08-27T00:33:46.818Z,17.33
2022-08-27T00:34:46.780Z,17.33
2022-08-27T00:35:46.788Z,17.34
2022-08-27T00:36:46.767Z,17.36
2022-08-27T00:37:46.778Z,17.36
2022-08-27T00:38:46.756Z,17.34
2022-08-27T00:39:46.772Z,17.36
2022-08-27T00:40:46.854Z,17.36
2022-08-27T00:41:46.707Z,17.34
2022-08-27T00:42:46.712Z,17.34
2022-08-27T00:43:46.692Z,17.36
2022-08-27T00:44:46.711Z,17.36
2022-08-27T00:45:46.759Z,17.36
2022-08-27T00:46:46.651Z,17.38
2022-08-27T00:47:46.664Z,17.38
2022-08-27T00:48:46.667Z,17.41
2022-08-27T00:49:46.655Z,17.41
2022-08-27T00:50:46.583Z,17.41
2022-08-27T00:51:46.840Z,17.41
2022-08-27T00:52:46.580Z,17.41
2022-08-27T00:53:46.581Z,17.42
2022-08-27T00:54:46.620Z,17.42
2022-08-27T00:55:46.556Z,17.44
2022-08-27T00:56:51.397Z,17.44
2022-08-27T00:57:46.753Z,17.44
2022-08-27T00:58:46.554Z,17.44
2022-08-27T00:59:46.541Z,17.41
2022-08-27T01:00:46.588Z,17.42
2022-08-27T01:01:46.530Z,17.42
2022-08-27T01:02:46.472Z,17.45
2022-08-27T01:03:46.471Z,17.44
2022-08-27T01:04:46.522Z,17.44
2022-08-27T01:05:46.454Z,17.44
2022-08-27T01:06:46.525Z,17.45
2022-08-27T01:07:46.416Z,17.46
2022-08-27T01:08:46.439Z,17.48
2022-08-27T01:09:46.414Z,17.48
2022-08-27T01:10:46.401Z,17.48
2022-08-27T01:11:46.829Z,17.48
2022-08-27T01:12:53.595Z,17.46
2022-08-27T01:14:00.146Z,17.46
2022-08-27T01:14:46.380Z,17.48
2022-08-27T01:15:46.390Z,17.46
2022-08-27T01:16:46.401Z,17.49
2022-08-27T01:17:46.358Z,17.51
2022-08-27T01:18:46.333Z,17.49
2022-08-27T01:19:46.333Z,17.51
2022-08-27T01:20:46.286Z,17.49
2022-08-27T01:21:46.337Z,17.49
2022-08-27T01:22:46.293Z,17.49
2022-08-27T01:23:46.257Z,17.51
2022-08-27T01:24:46.310Z,17.52
2022-08-27T01:25:46.270Z,17.54
2022-08-27T01:26:46.228Z,17.56
2022-08-27T01:27:46.262Z,17.56
2022-08-27T01:28:46.222Z,17.52
2022-08-27T01:29:46.266Z,17.56
2022-08-27T01:30:46.189Z,17.57
2022-08-27T01:31:46.240Z,17.59
2022-08-27T01:32:46.163Z,17.59
2022-08-27T01:33:46.203Z,17.60
2022-08-27T01:34:46.156Z,17.60
2022-08-27T01:35:46.229Z,17.59
2022-08-27T01:36:46.183Z,17.59
2022-08-27T01:37:46.140Z,17.59
2022-08-27T01:38:46.170Z,17.59
2022-08-27T01:39:46.105Z,17.57
2022-08-27T01:40:46.120Z,17.59
2022-08-27T01:41:46.081Z,17.57
2022-08-27T01:42:46.113Z,17.54
2022-08-27T01:43:46.062Z,17.56
2022-08-27T01:44:46.076Z,17.56
2022-08-27T01:45:46.051Z,17.57
2022-08-27T01:46:46.109Z,17.56
2022-08-27T01:47:46.082Z,17.56
2022-08-27T01:48:46.115Z,17.57
2022-08-27T01:49:46.027Z,17.57
2022-08-27T01:50:46.018Z,17.59
2022-08-27T01:51:45.966Z,17.59
2022-08-27T01:52:45.965Z,17.59
2022-08-27T01:53:45.961Z,17.59
2022-08-27T01:54:45.964Z,17.60
2022-08-27T01:55:48.368Z,17.63
2022-08-27T01:56:45.923Z,17.60
2022-08-27T01:57:45.930Z,17.63
2022-08-27T01:58:45.931Z,17.63
2022-08-27T01:59:45.944Z,17.64
2022-08-27T02:00:45.991Z,17.63
2022-08-27T02:01:45.925Z,17.64
2022-08-27T02:02:45.900Z,17.64
2022-08-27T02:03:45.869Z,17.64
2022-08-27T02:04:45.870Z,17.63
2022-08-27T02:05:45.871Z,17.64
2022-08-27T02:06:45.832Z,17.63
2022-08-27T02:07:45.885Z,17.60
2022-08-27T02:08:45.807Z,17.63
2022-08-27T02:09:45.784Z,17.63
2022-08-27T02:10:45.848Z,17.63
2022-08-27T02:11:45.789Z,17.64
2022-08-27T02:12:45.807Z,17.64
2022-08-27T02:13:45.747Z,17.64
2022-08-27T02:14:45.777Z,17.64
2022-08-27T02:15:45.754Z,17.67
2022-08-27T02:16:52.118Z,17.65
2022-08-27T02:17:45.760Z,17.67
2022-08-27T02:18:45.733Z,17.67
2022-08-27T02:19:45.705Z,17.68
2022-08-27T02:20:45.711Z,17.65
2022-08-27T02:21:45.699Z,17.67
2022-08-27T02:22:45.734Z,17.67
2022-08-27T02:23:45.660Z,17.67
2022-08-27T02:24:45.665Z,17.70
2022-08-27T02:25:45.705Z,17.68
2022-08-27T02:26:45.635Z,17.68
2022-08-27T02:27:45.704Z,17.68
2022-08-27T02:28:45.645Z,17.70
2022-08-27T02:29:46.723Z,17.70
2022-08-27T02:30:45.606Z,17.68
2022-08-27T02:31:45.629Z,17.68
2022-08-27T02:32:45.577Z,17.70
2022-08-27T02:33:45.559Z,17.67
2022-08-27T02:34:45.579Z,17.65
2022-08-27T02:35:45.537Z,17.68
2022-08-27T02:36:45.668Z,17.65
2022-08-27T02:37:45.534Z,17.68
2022-08-27T02:38:45.575Z,17.67
2022-08-27T02:39:46.176Z,17.65
2022-08-27T02:40:45.475Z,17.65
2022-08-27T02:41:45.504Z,17.68
2022-08-27T02:42:45.483Z,17.68
2022-08-27T02:43:45.526Z,17.67
2022-08-27T02:44:45.473Z,17.67
2022-08-27T02:45:45.468Z,17.68
2022-08-27T02:46:45.481Z,17.67
2022-08-27T02:47:45.407Z,17.70
2022-08-27T02:48:45.458Z,17.70
2022-08-27T02:49:45.380Z,17.70
2022-08-27T02:50:45.456Z,17.70
2022-08-27T02:51:45.380Z,17.70
2022-08-27T02:52:46.412Z,17.68
2022-08-27T02:53:45.446Z,17.72
2022-08-27T02:54:45.436Z,17.70
2022-08-27T02:55:45.347Z,17.68
2022-08-27T02:56:45.339Z,17.68
2022-08-27T02:57:45.336Z,17.68
2022-08-27T02:58:45.292Z,17.68
2022-08-27T02:59:45.305Z,17.70
2022-08-27T03:00:45.280Z,17.70
2022-08-27T03:01:45.397Z,17.70
2022-08-27T03:02:45.434Z,17.68
2022-08-27T03:03:45.236Z,17.68
2022-08-27T03:04:45.243Z,17.68
2022-08-27T03:05:45.203Z,17.68
2022-08-27T03:06:45.253Z,17.68
2022-08-27T03:07:45.245Z,17.68
2022-08-27T03:08:52.327Z,17.70
2022-08-27T03:09:45.295Z,17.68
2022-08-27T03:10:45.177Z,17.68
2022-08-27T03:11:45.145Z,17.67
2022-08-27T03:12:45.152Z,17.67
2022-08-27T03:13:45.192Z,17.68
2022-08-27T03:14:45.169Z,17.68
2022-08-27T03:15:45.140Z,17.67
2022-08-27T03:16:45.121Z,17.67
2022-08-27T03:17:45.116Z,17.67
2022-08-27T03:18:45.119Z,17.65
2022-08-27T03:19:45.076Z,17.67
2022-08-27T03:20:45.172Z,17.67
2022-08-27T03:21:45.092Z,17.67
2022-08-27T03:22:45.066Z,17.67
2022-08-27T03:23:45.061Z,17.65
2022-08-27T03:24:45.075Z,17.68
2022-08-27T03:25:45.020Z,17.67
2022-08-27T03:26:52.465Z,17.68
2022-08-27T03:27:45.003Z,17.68
2022-08-27T03:28:45.039Z,17.68
2022-08-27T03:29:45.031Z,17.67
2022-08-27T03:30:45.005Z,17.67
2022-08-27T03:31:44.983Z,17.67
2022-08-27T03:32:44.957Z,17.67
2022-08-27T03:33:44.944Z,17.67
2022-08-27T03:34:44.925Z,17.67
2022-08-27T03:35:47.856Z,17.67
2022-08-27T03:36:44.920Z,17.68
2022-08-27T03:37:44.876Z,17.65
2022-08-27T03:38:44.933Z,17.65
2022-08-27T03:39:44.894Z,17.67
2022-08-27T03:40:44.895Z,17.67
2022-08-27T03:41:54.888Z,17.67
2022-08-27T03:42:44.880Z,17.65
2022-08-27T03:43:44.869Z,17.65
2022-08-27T03:44:44.860Z,17.65
2022-08-27T03:46:00.983Z,17.65
2022-08-27T03:46:44.940Z,17.65
2022-08-27T03:47:44.809Z,17.68
2022-08-27T03:48:44.797Z,17.65
2022-08-27T03:49:44.761Z,17.67
2022-08-27T03:50:44.760Z,17.64
2022-08-27T03:51:44.735Z,17.64
2022-08-27T03:52:44.792Z,17.65
2022-08-27T03:53:44.761Z,17.64
2022-08-27T03:54:44.714Z,17.65
2022-08-27T03:55:44.719Z,17.67
2022-08-27T03:56:44.732Z,17.65
2022-08-27T03:57:44.673Z,17.67
2022-08-27T03:58:44.742Z,17.65
2022-08-27T03:59:44.677Z,17.65
2022-08-27T04:00:44.662Z,17.65
2022-08-27T04:01:44.717Z,17.64
2022-08-27T04:02:44.708Z,17.64
2022-08-27T04:03:44.706Z,17.63
2022-08-27T04:04:44.723Z,17.60
2022-08-27T04:05:45.360Z,17.59
2022-08-27T04:06:44.634Z,17.60
2022-08-27T04:07:44.574Z,17.57
2022-08-27T04:08:44.636Z,17.57
2022-08-27T04:09:44.699Z,17.57
2022-08-27T04:10:44.572Z,17.56
2022-08-27T04:11:44.526Z,17.54
2022-08-27T04:12:44.551Z,17.56
2022-08-27T04:13:44.491Z,17.57
2022-08-27T04:14:44.535Z,17.57
2022-08-27T04:15:44.515Z,17.57
2022-08-27T04:16:44.459Z,17.56
2022-08-27T04:17:44.452Z,17.57
2022-08-27T04:18:44.452Z,17.57
2022-08-27T04:19:44.454Z,17.57
2022-08-27T04:20:44.400Z,17.57
2022-08-27T04:21:44.380Z,17.57
2022-08-27T04:22:44.374Z,17.56
2022-08-27T04:23:44.361Z,17.56
2022-08-27T04:24:44.384Z,17.56
2022-08-27T04:25:44.349Z,17.56
2022-08-27T04:26:44.315Z,17.54
2022-08-27T04:27:44.355Z,17.52
2022-08-27T04:28:48.557Z,17.52
2022-08-27T04:29:44.404Z,17.54
2022-08-27T04:30:44.277Z,17.54
2022-08-27T04:31:44.354Z,17.52
2022-08-27T04:32:44.303Z,17.51
2022-08-27T04:33:50.819Z,17.51
2022-08-27T04:34:44.332Z,17.51
2022-08-27T04:35:44.213Z,17.52
2022-08-27T04:36:44.220Z,17.52
2022-08-27T04:37:44.219Z,17.49
2022-08-27T04:38:44.215Z,17.49
2022-08-27T04:39:48.590Z,17.51
2022-08-27T04:40:44.229Z,17.49
2022-08-27T04:41:44.212Z,17.49
2022-08-27T04:42:44.173Z,17.48
2022-08-27T04:43:44.154Z,17.48
2022-08-27T04:44:44.136Z,17.46
2022-08-27T04:45:44.168Z,17.46
2022-08-27T04:46:49.131Z,17.46
2022-08-27T04:47:44.117Z,17.45
2022-08-27T04:48:44.148Z,17.46
2022-08-27T04:49:44.093Z,17.45
2022-08-27T04:50:44.077Z,17.46
2022-08-27T04:51:44.110Z,17.46
2022-08-27T04:52:44.059Z,17.46
2022-08-27T04:53:44.036Z,17.45
2022-08-27T04:54:44.049Z,17.46
2022-08-27T04:55:44.059Z,17.45
2022-08-27T04:56:44.032Z,17.46
2022-08-27T04:57:43.989Z,17.48
2022-08-27T04:58:43.986Z,17.48
2022-08-27T04:59:44.034Z,17.48
2022-08-27T05:00:44.004Z,17.46
2022-08-27T05:01:44.076Z,17.49
2022-08-27T05:02:44.058Z,17.51
2022-08-27T05:03:43.975Z,17.49
2022-08-27T05:04:43.959Z,17.51
2022-08-27T05:05:43.931Z,17.49
2022-08-27T05:06:43.919Z,17.51
2022-08-27T05:07:43.896Z,17.48
2022-08-27T05:08:44.040Z,17.51
2022-08-27T05:09:43.913Z,17.51
2022-08-27T05:10:43.875Z,17.51
2022-08-27T05:11:43.882Z,17.52
2022-08-27T05:12:43.856Z,17.52
2022-08-27T05:13:43.826Z,17.51
2022-08-27T05:14:43.865Z,17.54
2022-08-27T05:15:43.864Z,17.54
2022-08-27T05:16:43.804Z,17.57
2022-08-27T05:17:43.838Z,17.56
2022-08-27T05:18:48.046Z,17.56
2022-08-27T05:19:43.883Z,17.56
2022-08-27T05:20:43.768Z,17.56
2022-08-27T05:21:43.772Z,17.56
2022-08-27T05:22:43.769Z,17.56
2022-08-27T05:23:43.761Z,17.54
2022-08-27T05:24:47.095Z,17.56
2022-08-27T05:25:43.737Z,17.54
2022-08-27T05:26:43.730Z,17.54
2022-08-27T05:27:43.738Z,17.52
2022-08-27T05:28:43.712Z,17.52
2022-08-27T05:29:43.672Z,17.52
2022-08-27T05:30:43.788Z,17.51
2022-08-27T05:31:43.663Z,17.51
2022-08-27T05:32:43.642Z,17.51
2022-08-27T05:33:43.697Z,17.52
2022-08-27T05:34:43.662Z,17.52
2022-08-27T05:35:43.666Z,17.52
2022-08-27T05:36:47.957Z,17.54
2022-08-27T05:37:43.613Z,17.52
2022-08-27T05:38:43.595Z,17.51
2022-08-27T05:39:43.566Z,17.52
2022-08-27T05:40:43.558Z,17.52
2022-08-27T05:41:43.581Z,17.52
2022-08-27T05:42:43.542Z,17.54
2022-08-27T05:43:47.767Z,17.57
2022-08-27T05:44:43.512Z,17.57
2022-08-27T05:45:43.497Z,17.59
2022-08-27T05:46:43.587Z,17.59
2022-08-27T05:47:44.821Z,17.59
2022-08-27T05:48:43.453Z,17.59
2022-08-27T05:49:43.570Z,17.60
2022-08-27T05:50:43.495Z,17.59
2022-08-27T05:51:43.510Z,17.60
2022-08-27T05:52:43.436Z,17.60
2022-08-27T05:53:43.411Z,17.60
2022-08-27T05:54:43.440Z,17.63
2022-08-27T05:55:43.446Z,17.64
2022-08-27T05:56:43.408Z,17.63
2022-08-27T05:57:43.410Z,17.63
2022-08-27T05:58:43.403Z,17.60
2022-08-27T05:59:43.400Z,17.60
2022-08-27T06:00:43.635Z,17.59
2022-08-27T06:01:43.416Z,17.57
2022-08-27T06:02:43.386Z,17.57
2022-08-27T06:03:43.328Z,17.57
2022-08-27T06:04:43.307Z,17.56
2022-08-27T06:05:43.441Z,17.59
2022-08-27T06:06:43.298Z,17.60
2022-08-27T06:07:43.312Z,17.60
2022-08-27T06:08:43.553Z,17.60
2022-08-27T06:09:43.294Z,17.63
2022-08-27T06:10:43.245Z,17.65
2022-08-27T06:11:43.235Z,17.65
2022-08-27T06:12:43.230Z,17.67
2022-08-27T06:13:43.635Z,17.70
2022-08-27T06:14:43.288Z,17.70
2022-08-27T06:15:43.264Z,17.68
2022-08-27T06:16:43.206Z,17.70
2022-08-27T06:17:43.229Z,17.72
2022-08-27T06:18:43.192Z,17.71
2022-08-27T06:19:43.217Z,17.72
2022-08-27T06:20:43.391Z,17.74
2022-08-27T06:21:43.146Z,17.74
2022-08-27T06:22:43.121Z,17.74
2022-08-27T06:23:43.120Z,17.74
2022-08-27T06:24:43.246Z,17.74
2022-08-27T06:25:43.181Z,17.76
2022-08-27T06:26:43.148Z,17.76
2022-08-27T06:27:43.076Z,17.76
2022-08-27T06:28:43.149Z,17.78
2022-08-27T06:29:43.078Z,17.78
2022-08-27T06:30:43.085Z,17.78
2022-08-27T06:31:43.068Z,17.78
2022-08-27T06:32:43.074Z,17.79
2022-08-27T06:33:43.022Z,17.79
2022-08-27T06:34:43.063Z,17.80
2022-08-27T06:35:43.052Z,17.83
2022-08-27T06:36:43.002Z,17.86
2022-08-27T06:37:43.078Z,17.89
2022-08-27T06:38:42.964Z,17.89
2022-08-27T06:39:42.994Z,17.92
2022-08-27T06:40:42.941Z,17.92
2022-08-27T06:41:43.061Z,17.94
2022-08-27T06:42:42.931Z,17.95
2022-08-27T06:43:42.995Z,17.97
2022-08-27T06:44:42.953Z,17.98
2022-08-27T06:45:42.937Z,17.98
2022-08-27T06:46:42.976Z,18.01
2022-08-27T06:47:42.975Z,18.03
2022-08-27T06:48:42.907Z,18.05
2022-08-27T06:49:46.301Z,18.10
2022-08-27T06:50:42.891Z,18.08
2022-08-27T06:51:42.874Z,18.13
2022-08-27T06:52:42.823Z,18.19
2022-08-27T06:53:42.845Z,18.20
2022-08-27T06:54:42.851Z,18.25
2022-08-27T06:55:42.799Z,18.29
2022-08-27T06:56:42.801Z,18.34
2022-08-27T06:57:42.794Z,18.38
2022-08-27T06:58:42.831Z,18.43
2022-08-27T06:59:42.779Z,18.47
2022-08-27T07:00:46.057Z,18.53
2022-08-27T07:01:42.847Z,18.55
2022-08-27T07:02:42.789Z,18.56
2022-08-27T07:03:42.765Z,18.59
2022-08-27T07:04:42.739Z,18.59
2022-08-27T07:05:42.718Z,18.60
2022-08-27T07:06:42.700Z,18.62
2022-08-27T07:07:46.725Z,18.60
2022-08-27T07:08:42.696Z,18.60
2022-08-27T07:09:42.715Z,18.63
2022-08-27T07:10:42.638Z,18.65
2022-08-27T07:11:42.766Z,18.68
2022-08-27T07:12:42.655Z,18.70
2022-08-27T07:13:42.675Z,18.73
2022-08-27T07:14:42.754Z,18.75
2022-08-27T07:15:42.724Z,18.78
2022-08-27T07:16:42.623Z,18.78
2022-08-27T07:17:42.625Z,18.78
2022-08-27T07:18:42.619Z,18.75
2022-08-27T07:19:42.638Z,18.74
2022-08-27T07:20:42.603Z,18.75
2022-08-27T07:21:42.647Z,18.78
2022-08-27T07:22:42.559Z,18.75
2022-08-27T07:23:42.658Z,18.71
2022-08-27T07:24:42.691Z,18.71
2022-08-27T07:25:43.635Z,18.70
2022-08-27T07:26:42.933Z,18.65
2022-08-27T07:27:42.894Z,18.63
2022-08-27T07:28:42.488Z,18.62
2022-08-27T07:29:53.940Z,18.58
2022-08-27T07:30:43.231Z,18.56
2022-08-27T07:31:42.466Z,18.53
2022-08-27T07:32:42.764Z,18.52
2022-08-27T07:33:51.370Z,18.50
2022-08-27T07:34:43.038Z,18.50
2022-08-27T07:35:42.421Z,18.52
2022-08-27T07:36:42.632Z,18.53
2022-08-27T07:37:42.513Z,18.55
2022-08-27T07:38:42.481Z,18.55
2022-08-27T07:39:42.638Z,18.58
2022-08-27T07:40:42.401Z,18.60
2022-08-27T07:41:42.487Z,18.65
2022-08-27T07:42:42.347Z,18.63
2022-08-27T07:43:42.427Z,18.65
2022-08-27T07:44:42.409Z,18.68
2022-08-27T07:45:42.494Z,18.70
2022-08-27T07:46:46.998Z,18.78
2022-08-27T07:47:42.303Z,18.84
2022-08-27T07:48:42.353Z,18.90
2022-08-27T07:49:42.329Z,19.02
2022-08-27T07:50:42.811Z,19.16
2022-08-27T07:51:42.343Z,19.29
2022-08-27T07:52:42.242Z,19.45
2022-08-27T07:53:42.255Z,19.59
2022-08-27T07:54:42.265Z,19.73
2022-08-27T07:55:42.344Z,19.85
2022-08-27T07:56:55.421Z,19.99
2022-08-27T07:57:42.237Z,20.06
2022-08-27T07:58:42.372Z,20.09
2022-08-27T07:59:42.165Z,20.07
2022-08-27T08:00:42.286Z,20.10
2022-08-27T08:01:42.959Z,20.11
2022-08-27T08:02:54.860Z,20.14
2022-08-27T08:03:42.225Z,20.22
2022-08-27T08:04:42.506Z,20.31
2022-08-27T08:05:42.314Z,20.47
2022-08-27T08:06:42.213Z,20.59
2022-08-27T08:07:42.324Z,20.70
2022-08-27T08:08:45.530Z,20.72
2022-08-27T08:09:42.274Z,20.81
2022-08-27T08:10:42.644Z,20.80
2022-08-27T08:11:42.319Z,20.66
2022-08-27T08:12:42.098Z,20.56
2022-08-27T08:13:42.159Z,20.47
2022-08-27T08:14:42.247Z,20.34
2022-08-27T08:15:42.363Z,20.10
2022-08-27T08:16:42.055Z,19.89
2022-08-27T08:17:42.149Z,19.88
2022-08-27T08:18:42.148Z,19.88
2022-08-27T08:19:50.186Z,19.89
2022-08-27T08:20:57.545Z,19.89
2022-08-27T08:21:42.201Z,19.86
2022-08-27T08:22:41.982Z,19.88
2022-08-27T08:23:42.191Z,19.95
2022-08-27T08:24:41.996Z,20.02
2022-08-27T08:25:44.600Z,20.06
2022-08-27T08:26:42.344Z,20.13
2022-08-27T08:27:41.913Z,20.31
2022-08-27T08:28:45.173Z,20.39
2022-08-27T08:29:41.871Z,20.37
2022-08-27T08:30:42.208Z,20.34
2022-08-27T08:31:41.930Z,20.28
2022-08-27T08:32:42.312Z,20.32
2022-08-27T08:33:41.932Z,20.29
2022-08-27T08:34:42.466Z,20.32
2022-08-27T08:35:41.838Z,20.29
2022-08-27T08:36:41.836Z,20.29
2022-08-27T08:37:42.252Z,20.25
2022-08-27T08:38:42.106Z,20.32
2022-08-27T08:39:42.121Z,20.40
2022-08-27T08:40:42.214Z,20.51
2022-08-27T08:41:41.989Z,20.51
2022-08-27T08:42:41.962Z,20.51
2022-08-27T08:43:42.283Z,20.48
2022-08-27T08:44:50.181Z,20.39
2022-08-27T08:45:42.248Z,20.41
2022-08-27T08:46:41.663Z,20.50
2022-08-27T08:47:41.970Z,20.65
2022-08-27T08:48:42.713Z,20.80
2022-08-27T08:49:41.763Z,20.84
2022-08-27T08:50:41.717Z,20.90
2022-08-27T08:51:41.680Z,21.05
2022-08-27T08:52:41.815Z,21.11
2022-08-27T08:53:41.745Z,21.11
2022-08-27T08:54:41.709Z,21.15
2022-08-27T08:55:43.201Z,21.22
2022-08-27T08:56:43.136Z,21.18
2022-08-27T08:57:42.492Z,21.11
2022-08-27T09:00:04.532Z,20.95
2022-08-27T09:01:05.011Z,20.90
2022-08-27T09:02:04.706Z,20.88
2022-08-27T09:03:05.006Z,20.88
2022-08-27T09:04:03.741Z,20.90
2022-08-27T09:05:06.796Z,20.88
2022-08-27T09:06:04.650Z,20.74
2022-08-27T09:07:04.902Z,20.63
2022-08-27T09:08:30.915Z,20.60
2022-08-27T09:09:04.751Z,20.56
2022-08-27T09:10:04.610Z,20.58
2022-08-27T09:11:05.152Z,20.58
2022-08-27T09:12:04.579Z,20.66
2022-08-27T09:13:04.619Z,20.82
2022-08-27T09:14:06.850Z,21.00
2022-08-27T09:15:05.326Z,21.15
2022-08-27T09:16:05.623Z,21.33
2022-08-27T09:17:10.847Z,21.39
2022-08-27T09:18:04.960Z,21.33
2022-08-27T09:19:05.947Z,21.37
2022-08-27T09:20:08.069Z,21.57
2022-08-27T09:21:08.719Z,21.61
2022-08-27T09:22:19.393Z,21.55
2022-08-27T09:23:05.799Z,21.50
2022-08-27T09:25:12.003Z,21.39
2022-08-27T09:26:13.830Z,21.37
2022-08-27T09:27:15.052Z,21.37
2022-08-27T09:28:12.864Z,21.36
2022-08-27T09:29:13.017Z,21.37
2022-08-27T09:30:12.928Z,21.33
2022-08-27T09:31:13.067Z,21.18
2022-08-27T09:32:13.197Z,21.15
2022-08-27T09:33:12.957Z,21.03
2022-08-27T09:34:15.727Z,21.06
2022-08-27T09:35:31.832Z,21.07
2022-08-27T09:36:12.587Z,21.20
2022-08-27T09:37:12.680Z,21.30
2022-08-27T09:38:12.529Z,21.37
2022-08-27T09:39:12.545Z,21.37
2022-08-27T09:40:13.175Z,21.45
2022-08-27T09:42:31.869Z,21.45
2022-08-27T09:43:32.899Z,21.40
2022-08-27T09:44:32.867Z,21.39
2022-08-27T09:45:32.887Z,21.33
2022-08-27T09:46:32.838Z,21.32
2022-08-27T09:47:32.853Z,21.27
2022-08-27T09:48:32.816Z,21.29
2022-08-27T09:49:32.828Z,21.32
2022-08-27T09:50:32.796Z,21.27
2022-08-27T09:51:32.769Z,21.22
2022-08-27T09:52:32.781Z,21.17
2022-08-27T09:53:32.732Z,21.12
2022-08-27T09:54:32.731Z,21.15
2022-08-27T09:55:32.745Z,21.11
2022-08-27T09:56:32.733Z,21.07
2022-08-27T09:57:32.693Z,21.06
2022-08-27T09:58:32.676Z,20.97
2022-08-27T09:59:32.685Z,21.02
2022-08-27T10:00:32.678Z,20.97
2022-08-27T10:01:32.688Z,20.97
2022-08-27T10:02:32.638Z,21.02
2022-08-27T10:03:33.594Z,21.03
2022-08-27T10:04:32.613Z,21.03
2022-08-27T10:05:32.610Z,21.05
2022-08-27T10:06:32.626Z,21.03
2022-08-27T10:07:32.576Z,21.02
2022-08-27T10:08:32.584Z,21.07
2022-08-27T10:09:32.606Z,21.11
2022-08-27T10:10:32.562Z,21.12
2022-08-27T10:11:32.529Z,21.17
2022-08-27T10:12:32.564Z,21.15
2022-08-27T10:13:32.538Z,21.21
2022-08-27T10:14:32.498Z,21.25
2022-08-27T10:15:36.522Z,21.29
2022-08-27T10:16:32.538Z,21.29
2022-08-27T10:17:32.477Z,21.24
2022-08-27T10:18:32.475Z,21.27
2022-08-27T10:19:32.464Z,21.27
2022-08-27T10:20:32.464Z,21.22
2022-08-27T10:21:32.472Z,21.20
2022-08-27T10:22:32.451Z,21.21
2022-08-27T10:23:32.408Z,21.25
2022-08-27T10:24:32.384Z,21.32
2022-08-27T10:25:32.450Z,21.36
2022-08-27T10:26:33.893Z,21.40
2022-08-27T10:27:32.433Z,21.40
2022-08-27T10:28:32.393Z,21.45
2022-08-27T10:29:32.374Z,21.43
2022-08-27T10:30:32.666Z,21.52
2022-08-27T10:31:32.412Z,21.58
2022-08-27T10:32:33.200Z,21.66
2022-08-27T10:33:32.649Z,21.64
2022-08-27T10:34:32.293Z,21.64
2022-08-27T10:35:32.290Z,21.58
2022-08-27T10:36:32.256Z,21.55
2022-08-27T10:37:40.298Z,21.54
2022-08-27T10:38:32.225Z,21.61
2022-08-27T10:39:32.244Z,21.70
2022-08-27T10:40:32.377Z,21.76
2022-08-27T10:41:32.224Z,21.83
2022-08-27T10:43:13.486Z,21.89
2022-08-27T10:43:32.381Z,21.83
2022-08-27T10:44:32.626Z,21.83
2022-08-27T10:45:32.615Z,21.83
2022-08-27T10:52:08.420Z,21.54
2022-08-27T10:53:20.225Z,21.55
2022-08-27T10:54:16.417Z,21.58
2022-08-27T10:55:07.667Z,21.62
2022-08-27T10:56:16.062Z,21.69
2022-08-27T11:00:11.073Z,21.88
2022-08-27T11:02:44.640Z,21.69
2022-08-27T11:03:48.870Z,21.64
2022-08-27T11:06:38.469Z,21.76
2022-08-27T11:09:10.771Z,21.66
2022-08-27T11:12:14.902Z,21.62
2022-08-27T11:15:41.478Z,21.58
2022-08-27T11:16:47.386Z,21.57
2022-08-27T11:21:32.932Z,21.50
2022-08-27T11:27:47.569Z,21.50
2022-08-27T11:32:30.480Z,21.70
2022-08-27T11:33:28.890Z,21.77
2022-08-27T11:34:28.614Z,21.82
2022-08-27T11:35:34.945Z,21.91
2022-08-27T11:36:28.530Z,21.98
2022-08-27T11:37:29.403Z,22.06
2022-08-27T11:38:28.629Z,22.15
2022-08-27T11:39:51.655Z,22.25
2022-08-27T11:40:29.915Z,22.36
2022-08-27T11:41:44.864Z,22.36
2022-08-27T11:42:28.391Z,22.29
2022-08-27T11:44:55.692Z,22.04
2022-08-27T11:45:48.524Z,21.93
2022-08-27T11:48:30.640Z,21.85
2022-08-27T11:52:01.087Z,21.77
2022-08-27T11:53:01.101Z,21.79
2022-08-27T11:55:42.696Z,21.99
2022-08-27T11:56:43.642Z,22.00
2022-08-27T11:57:43.442Z,22.08
2022-08-27T11:58:53.375Z,22.22
2022-08-27T11:59:43.460Z,22.38
2022-08-27T12:00:43.428Z,22.53
2022-08-27T12:01:43.432Z,22.65
2022-08-27T12:02:43.463Z,22.98
2022-08-27T12:03:43.464Z,23.09
2022-08-27T12:04:43.515Z,23.21
2022-08-27T12:05:43.397Z,23.44
2022-08-27T12:06:43.389Z,23.58
2022-08-27T12:07:43.415Z,23.78
2022-08-27T12:08:43.407Z,23.88
2022-08-27T12:09:43.588Z,23.78
2022-08-27T12:10:45.520Z,23.66
2022-08-27T12:13:31.626Z,23.47
2022-08-27T12:14:32.364Z,23.44
2022-08-27T12:16:42.365Z,23.36
2022-08-27T12:17:47.300Z,23.24
2022-08-27T12:21:04.857Z,22.76
2022-08-27T12:22:05.627Z,22.73
2022-08-27T12:23:06.151Z,22.72
2022-08-27T12:24:05.536Z,22.65
2022-08-27T12:25:05.404Z,22.63
2022-08-27T12:26:05.488Z,22.55
2022-08-27T12:27:05.404Z,22.51
2022-08-27T12:28:06.444Z,22.51
2022-08-27T12:29:05.516Z,22.44
2022-08-27T12:30:05.353Z,22.43
2022-08-27T12:31:05.442Z,22.44
2022-08-27T12:32:05.315Z,22.51
2022-08-27T12:33:05.739Z,22.51
2022-08-27T12:34:05.309Z,22.48
2022-08-27T12:35:05.664Z,22.48
2022-08-27T12:36:05.352Z,22.43
2022-08-27T12:37:05.310Z,22.35
2022-08-27T12:38:05.418Z,22.30
2022-08-27T12:39:05.336Z,22.25
2022-08-27T12:40:05.374Z,22.23
2022-08-27T12:41:05.249Z,22.29
2022-08-27T12:42:05.213Z,22.35
2022-08-27T12:43:05.264Z,22.38
2022-08-27T12:44:05.191Z,22.39
2022-08-27T12:45:05.200Z,22.38
2022-08-27T12:46:05.220Z,22.38
2022-08-27T12:47:05.229Z,22.39
2022-08-27T12:48:05.195Z,22.43
2022-08-27T12:49:10.086Z,22.44
2022-08-27T12:50:05.181Z,22.44
2022-08-27T12:51:05.145Z,22.41
2022-08-27T12:52:05.176Z,22.36
2022-08-27T12:53:05.092Z,22.32
2022-08-27T12:54:05.114Z,22.32
2022-08-27T12:55:05.131Z,22.36
2022-08-27T12:56:05.099Z,22.38
2022-08-27T12:57:05.127Z,22.28
2022-08-27T12:58:05.107Z,22.22
2022-08-27T12:59:05.028Z,22.17
2022-08-27T13:00:05.052Z,22.10
2022-08-27T13:01:05.190Z,22.11
2022-08-27T13:02:05.080Z,22.13
2022-08-27T13:03:04.972Z,22.17
2022-08-27T13:04:04.994Z,22.28
2022-08-27T13:05:04.962Z,22.28
2022-08-27T13:06:04.972Z,22.32
2022-08-27T13:07:04.965Z,22.29
2022-08-27T13:08:05.044Z,22.26
2022-08-27T13:09:04.946Z,22.26
2022-08-27T13:10:04.892Z,22.28
2022-08-27T13:11:04.908Z,22.29
2022-08-27T13:12:04.893Z,22.33
2022-08-27T13:13:04.882Z,22.36
2022-08-27T13:14:04.920Z,22.32
2022-08-27T13:15:05.089Z,22.25
2022-08-27T13:16:04.875Z,22.18
2022-08-27T13:17:04.877Z,22.22
2022-08-27T13:18:04.882Z,22.28
2022-08-27T13:19:04.794Z,22.38
2022-08-27T13:20:04.827Z,22.51
2022-08-27T13:21:04.785Z,22.57
2022-08-27T13:22:04.857Z,22.59
2022-08-27T13:23:04.805Z,22.59
2022-08-27T13:24:04.763Z,22.60
2022-08-27T13:25:04.731Z,22.65
2022-08-27T13:26:04.721Z,22.73
2022-08-27T13:27:04.756Z,22.80
2022-08-27T13:28:04.760Z,22.85
2022-08-27T13:29:04.686Z,22.91
2022-08-27T13:30:04.706Z,22.99
2022-08-27T13:31:04.728Z,22.83
2022-08-27T13:32:04.722Z,22.75
2022-08-27T13:33:04.842Z,22.68
2022-08-27T13:34:06.270Z,22.59
2022-08-27T13:35:04.656Z,22.54
2022-08-27T13:36:04.624Z,22.59
2022-08-27T13:37:04.609Z,22.65
2022-08-27T13:38:04.675Z,22.68
2022-08-27T13:39:04.616Z,22.69
2022-08-27T13:40:04.710Z,22.73